Time;durP1;ratioP1;P1;durP2;ratioP2;P2;SDS_P1;SDS_P2;PMS_P1;PMS_P2;Temp;Humidity;BMP_temperature;BMP_pressure;BME280_temperature;BME280_humidity;BME280_pressure;Samples;Min_cycle;Max_cycle;Signal;HPM_P1;HPM_P2
2023/05/07 00:00:52;;;;;;;14.07;8.90;;;;;;;;;;5043463;28;20471;-58
2023/05/07 00:03:21;;;;;;;17.03;9.53;;;;;;;;;;5042759;28;20499;-58
2023/05/07 00:05:48;;;;;;;10.93;8.73;;;;;;;;;;5043183;28;20539;-59
2023/05/07 00:08:15;;;;;;;9.73;6.77;;;;;;;;;;5045843;28;20472;-58
2023/05/07 00:10:43;;;;;;;10.53;7.63;;;;;;;;;;5047100;28;20478;-59
2023/05/07 00:13:10;;;;;;;10.57;7.63;;;;;;;;;;5043735;28;20463;-56
2023/05/07 00:15:37;;;;;;;12.83;8.00;;;;;;;;;;5045121;28;20441;-59
2023/05/07 00:18:05;;;;;;;11.10;5.43;;;;;;;;;;5044696;28;20470;-59
2023/05/07 00:20:34;;;;;;;13.40;7.10;;;;;;;;;;5045103;28;20538;-59
2023/05/07 00:23:01;;;;;;;11.60;8.17;;;;;;;;;;5045147;28;20459;-58
2023/05/07 00:25:28;;;;;;;22.60;12.17;;;;;;;;;;5045050;28;20514;-57
2023/05/07 00:27:57;;;;;;;8.40;5.90;;;;;;;;;;5044198;28;20480;-60
2023/05/07 00:30:24;;;;;;;13.87;7.30;;;;;;;;;;5044452;28;20463;-58
2023/05/07 00:32:51;;;;;;;9.73;6.73;;;;;;;;;;5044010;28;20425;-57
2023/05/07 00:35:24;;;;;;;7.67;6.47;;;;;;;;;;5044951;28;20436;-57
2023/05/07 00:37:52;;;;;;;11.10;6.87;;;10.40;99.90;;;;;;5045009;28;20437;-58
2023/05/07 00:40:21;;;;;;;12.27;6.87;;;;;;;;;;5044367;28;20468;-58
2023/05/07 00:42:48;;;;;;;9.93;7.17;;;;;;;;;;5043800;28;20985;-56
2023/05/07 00:45:16;;;;;;;7.43;6.50;;;;;;;;;;5044742;28;20488;-56
2023/05/07 00:47:43;;;;;;;11.30;7.13;;;;;;;;;;5043991;28;20495;-58
2023/05/07 00:50:12;;;;;;;10.50;7.20;;;;;;;;;;5044384;28;20439;-55
2023/05/07 00:52:39;;;;;;;7.57;5.27;;;;;;;;;;5044585;28;20531;-58
2023/05/07 00:55:10;;;;;;;10.07;6.73;;;;;;;;;;5040538;28;20451;-59
2023/05/07 00:57:39;;;;;;;8.60;7.00;;;10.50;99.90;;;;;;5038716;28;20452;-59
2023/05/07 01:00:08;;;;;;;9.33;6.97;;;;;;;;;;5051019;28;20473;-50
2023/05/07 01:02:35;;;;;;;7.93;6.73;;;;;;;;;;5052319;28;20839;-56
2023/05/07 01:05:04;;;;;;;15.70;7.50;;;;;;;;;;5052724;28;20499;-57
2023/05/07 01:07:31;;;;;;;12.67;6.87;;;;;;;;;;5044031;28;20456;-59
2023/05/07 01:09:58;;;;;;;9.00;6.10;;;;;;;;;;5043984;28;20531;-59
2023/05/07 01:12:28;;;;;;;28.07;7.73;;;;;;;;;;5043788;28;20476;-58
2023/05/07 01:14:57;;;;;;;8.90;6.73;;;10.20;99.90;;;;;;5045915;28;20467;-58
2023/05/07 01:17:25;;;;;;;7.47;6.17;;;;;;;;;;5047766;28;20483;-60
2023/05/07 01:19:52;;;;;;;11.77;7.60;;;;;;;;;;5047892;28;20432;-57
2023/05/07 01:22:31;;;;;;;11.83;7.43;;;10.30;99.90;;;;;;5048108;28;20840;-57
2023/05/07 01:24:59;;;;;;;9.27;6.20;;;;;;;;;;5058070;28;20557;-58
2023/05/07 01:27:26;;;;;;;13.77;8.07;;;;;;;;;;5059768;28;20455;-56
2023/05/07 01:29:53;;;;;;;10.73;7.23;;;;;;;;;;5056071;28;20454;-59
2023/05/07 01:32:28;;;;;;;9.10;7.70;;;10.60;99.90;;;;;;5047727;28;20461;-58
2023/05/07 01:34:56;;;;;;;9.70;7.27;;;;;;;;;;5047458;28;20435;-60
2023/05/07 01:37:25;;;;;;;15.70;8.00;;;;;;;;;;5048203;28;20468;-60
2023/05/07 01:39:52;;;;;;;10.17;7.27;;;;;;;;;;5045403;28;20491;-60
2023/05/07 01:42:19;;;;;;;7.60;5.70;;;;;;;;;;5042930;28;20479;-56
2023/05/07 01:44:47;;;;;;;9.47;7.20;;;;;;;;;;5057259;28;20468;-59
2023/05/07 01:47:15;;;;;;;13.27;8.43;;;9.90;99.90;;;;;;5059044;28;20450;-56
2023/05/07 01:49:43;;;;;;;12.90;7.13;;;10.20;99.90;;;;;;5054902;28;20479;-59
2023/05/07 01:52:11;;;;;;;12.73;6.33;;;;;;;;;;5046878;28;20476;-59
2023/05/07 01:54:40;;;;;;;7.60;6.27;;;;;;;;;;5048092;28;20893;-59
2023/05/07 01:57:07;;;;;;;12.70;8.60;;;;;;;;;;5050898;28;20463;-57
2023/05/07 01:59:34;;;;;;;9.53;6.47;;;;;;;;;;5055989;28;20459;-59
2023/05/07 02:02:01;;;;;;;7.90;6.73;;;;;;;;;;5047246;28;20536;-58
2023/05/07 02:04:29;;;;;;;8.93;6.40;;;;;;;;;;5057180;28;20475;-59
2023/05/07 02:06:57;;;;;;;9.83;6.20;;;;;;;;;;5053627;28;20456;-52
2023/05/07 02:09:24;;;;;;;8.20;6.27;;;;;;;;;;5054712;28;20455;-60
2023/05/07 02:11:52;;;;;;;10.73;7.43;;;;;;;;;;5045291;28;20480;-59
2023/05/07 02:14:21;;;;;;;9.83;6.90;;;;;;;;;;5041094;28;20491;-61
2023/05/07 02:16:48;;;;;;;9.10;5.80;;;;;;;;;;5046841;28;20446;-55
2023/05/07 02:19:16;;;;;;;10.43;6.40;;;;;;;;;;5055097;28;20440;-57
2023/05/07 02:21:43;;;;;;;9.57;6.50;;;;;;;;;;5052217;28;20440;-58
2023/05/07 02:24:13;;;;;;;11.47;8.17;;;;;;;;;;5057928;28;20538;-58
2023/05/07 02:26:41;;;;;;;7.20;5.57;;;;;;;;;;5056812;28;20468;-59
2023/05/07 02:29:09;;;;;;;11.17;5.77;;;;;;;;;;5055875;28;20468;-59
2023/05/07 02:31:36;;;;;;;8.20;5.87;;;;;;;;;;5048553;28;20448;-56
2023/05/07 02:34:03;;;;;;;7.70;5.87;;;;;;;;;;5053623;28;20465;-53
2023/05/07 02:36:31;;;;;;;9.40;7.00;;;;;;;;;;5053974;28;20476;-57
2023/05/07 02:38:58;;;;;;;12.20;7.33;;;;;;;;;;5046463;28;20496;-56
2023/05/07 02:41:25;;;;;;;10.63;6.07;;;;;;;;;;5046798;28;20452;-59
2023/05/07 02:43:52;;;;;;;7.90;6.73;;;;;;;;;;5047821;28;20448;-59
2023/05/07 02:46:21;;;;;;;9.87;7.97;;;;;;;;;;5046907;28;20526;-59
2023/05/07 02:48:48;;;;;;;11.67;6.90;;;;;;;;;;5046621;28;20523;-56
2023/05/07 02:51:15;;;;;;;12.00;7.00;;;;;;;;;;5046727;28;20471;-57
2023/05/07 02:53:42;;;;;;;11.20;6.70;;;;;;;;;;5049731;28;20425;-57
2023/05/07 02:56:09;;;;;;;9.17;5.00;;;;;;;;;;5057290;28;20444;-57
2023/05/07 02:58:36;;;;;;;8.77;6.23;;;;;;;;;;5050302;28;20467;-58
2023/05/07 03:01:04;;;;;;;9.93;8.23;;;;;;;;;;5046584;28;20475;-55
2023/05/07 03:03:32;;;;;;;9.90;7.07;;;;;;;;;;5045940;28;20479;-57
2023/05/07 03:06:02;;;;;;;7.87;5.83;;;;;;;;;;5045100;28;21035;-60
2023/05/07 03:08:29;;;;;;;10.60;6.50;;;;;;;;;;5046121;28;20451;-59
2023/05/07 03:10:56;;;;;;;7.40;5.00;;;;;;;;;;5045513;28;20490;-59
2023/05/07 03:13:23;;;;;;;6.37;5.50;;;;;;;;;;5045952;28;20445;-59
2023/05/07 03:15:50;;;;;;;8.27;5.60;;;;;;;;;;5047350;28;20532;-59
2023/05/07 03:18:18;;;;;;;12.37;6.93;;;;;;;;;;5057390;28;20420;-58
2023/05/07 03:20:46;;;;;;;9.47;6.23;;;;;;;;;;5056513;28;20459;-56
2023/05/07 03:23:13;;;;;;;6.00;4.73;;;;;;;;;;5050123;28;20473;-59
2023/05/07 03:25:40;;;;;;;9.70;7.00;;;;;;;;;;5045818;28;20516;-57
2023/05/07 03:28:07;;;;;;;8.90;6.10;;;;;;;;;;5055180;28;20454;-57
2023/05/07 03:30:35;;;;;;;14.30;5.50;;;;;;;;;;5049431;28;20460;-58
2023/05/07 03:33:02;;;;;;;6.23;5.53;;;;;;;;;;5046305;28;20444;-59
2023/05/07 03:35:29;;;;;;;9.60;6.20;;;;;;;;;;5045966;28;20776;-59
2023/05/07 03:37:57;;;;;;;9.20;5.50;;;;;;;;;;5045396;28;20993;-59
2023/05/07 03:40:25;;;;;;;7.70;5.83;;;;;;;;;;5046427;28;20539;-58
2023/05/07 03:42:52;;;;;;;9.90;6.97;;;;;;;;;;5045962;28;20444;-59
2023/05/07 03:45:20;;;;;;;11.70;6.87;;;;;;;;;;5046895;28;20864;-53
2023/05/07 03:47:47;;;;;;;13.40;7.60;;;;;;;;;;5056421;28;20473;-57
2023/05/07 03:50:14;;;;;;;11.90;6.17;;;;;;;;;;5056396;28;20428;-55
2023/05/07 03:52:41;;;;;;;8.70;5.77;;;;;;;;;;5055346;28;20460;-49
2023/05/07 03:55:10;;;;;;;8.90;6.80;;;;;;;;;;5046089;28;20467;-55
2023/05/07 03:57:37;;;;;;;8.03;6.20;;;;;;;;;;5044969;28;20444;-55
2023/05/07 04:00:06;;;;;;;8.33;5.80;;;;;;;;;;5044407;28;20564;-53
2023/05/07 04:02:34;;;;;;;8.30;7.00;;;10.30;99.90;;;;;;5045135;28;20472;-55
2023/05/07 04:05:01;;;;;;;6.83;5.60;;;;;;;;;;5041348;28;20503;-54
2023/05/07 04:07:28;;;;;;;14.30;7.03;;;;;;;;;;5039157;28;20443;-52
2023/05/07 04:09:55;;;;;;;9.87;6.50;;;;;;;;;;5039195;28;20527;-55
2023/05/07 04:12:23;;;;;;;10.43;6.03;;;;;;;;;;5039214;28;20464;-51
2023/05/07 04:14:51;;;;;;;6.57;5.13;;;;;;;;;;5043025;28;20475;-51
2023/05/07 04:17:18;;;;;;;10.03;8.00;;;;;;;;;;5044904;28;20472;-53
2023/05/07 04:19:45;;;;;;;11.00;6.70;;;;;;;;;;5050829;28;20436;-50
2023/05/07 04:22:12;;;;;;;9.13;6.30;;;;;;;;;;5052011;28;20450;-48
2023/05/07 04:24:39;;;;;;;6.87;4.93;;;;;;;;;;5045879;28;20579;-53
2023/05/07 04:27:07;;;;;;;9.73;5.93;;;;;;;;;;5044184;28;20452;-49
2023/05/07 04:29:35;;;;;;;9.63;5.90;;;;;;;;;;5044569;28;20610;-49
2023/05/07 04:32:02;;;;;;;7.73;5.50;;;;;;;;;;5051702;28;20472;-49
2023/05/07 04:34:35;;;;;;;8.07;5.57;;;;;;;;;;5053996;28;20444;-50
2023/05/07 04:37:02;;;;;;;7.73;4.97;;;;;;;;;;5056033;28;20491;-55
2023/05/07 04:39:30;;;;;;;5.33;4.83;;;;;;;;;;5054681;28;20463;-52
2023/05/07 04:41:57;;;;;;;7.30;6.50;;;;;;;;;;5051142;28;20451;-51
2023/05/07 04:44:24;;;;;;;6.17;5.57;;;;;;;;;;5048402;28;20488;-52
2023/05/07 04:46:53;;;;;;;7.50;4.57;;;;;;;;;;5044813;28;20451;-52
2023/05/07 04:49:20;;;;;;;6.80;4.70;;;;;;;;;;5047802;28;20468;-50
2023/05/07 04:51:47;;;;;;;6.10;4.07;;;;;;;;;;5054826;28;20408;-54
2023/05/07 04:54:14;;;;;;;7.40;5.20;;;;;;;;;;5058057;28;20482;-52
2023/05/07 04:56:44;;;;;;;6.40;5.20;;;;;;;;;;5051002;28;20506;-52
2023/05/07 04:59:11;;;;;;;7.87;5.70;;;;;;;;;;5050061;28;20486;-53
2023/05/07 05:01:38;;;;;;;8.90;5.53;;;;;;;;;;5050170;28;20520;-54
2023/05/07 05:04:07;;;;;;;7.17;5.57;;;;;;;;;;5050305;28;20460;-52
2023/05/07 05:06:34;;;;;;;5.40;4.20;;;;;;;;;;5053533;28;20507;-56
2023/05/07 05:09:01;;;;;;;5.83;4.20;;;;;;;;;;5054754;28;20505;-51
2023/05/07 05:11:28;;;;;;;7.07;5.20;;;;;;;;;;5049487;28;20544;-52
2023/05/07 05:13:55;;;;;;;6.77;4.70;;;;;;;;;;5050305;28;20543;-53
2023/05/07 05:16:22;;;;;;;5.60;3.63;;;;;;;;;;5050488;28;20770;-53
2023/05/07 05:18:51;;;;;;;4.90;4.13;;;;;;;;;;5050306;28;20523;-54
2023/05/07 05:21:19;;;;;;;4.80;4.30;;;;;;;;;;5050140;28;20476;-54
2023/05/07 05:23:47;;;;;;;6.27;4.20;;;;;;;;;;5050303;28;20504;-56
2023/05/07 05:26:14;;;;;;;6.30;5.00;;;;;;;;;;5059306;28;20475;-50
2023/05/07 05:28:41;;;;;;;5.83;4.93;;;;;;;;;;5058602;28;20447;-53
2023/05/07 05:31:08;;;;;;;10.03;5.00;;;;;;;;;;5058262;28;20444;-54
2023/05/07 05:33:35;;;;;;;6.87;5.03;;;;;;;;;;5058457;28;20503;-55
2023/05/07 05:36:02;;;;;;;5.20;3.50;;;;;;;;;;5060210;28;20432;-56
2023/05/07 05:38:31;;;;;;;10.67;5.17;;;;;;;;;;5054201;28;20519;-52
2023/05/07 05:40:58;;;;;;;8.33;5.00;;;;;;;;;;5050594;28;20480;-52
2023/05/07 05:43:28;;;;;;;9.10;4.80;;;;;;;;;;5060101;28;20440;-53
2023/05/07 05:45:56;;;;;;;7.67;4.80;;;;;;;;;;5055604;28;20541;-55
2023/05/07 05:48:24;;;;;;;7.60;4.37;;;;;;;;;;5055993;28;20483;-54
2023/05/07 05:50:51;;;;;;;6.73;5.00;;;;;;;;;;5058677;28;20905;-52
2023/05/07 05:53:21;;;;;;;7.97;4.67;;;;;;;;;;5060006;28;20451;-52
2023/05/07 05:55:50;;;;;;;7.60;4.63;;;;;;;;;;5061450;28;20428;-54
2023/05/07 05:58:17;;;;;;;7.77;5.13;;;;;;;;;;5057947;28;20464;-54
2023/05/07 06:00:44;;;;;;;7.60;5.60;;;;;;;;;;5046272;28;20444;-56
2023/05/07 06:03:11;;;;;;;7.20;4.80;;;;;;;;;;5045313;28;20448;-53
2023/05/07 06:05:38;;;;;;;5.70;4.37;;;;;;;;;;5045035;28;20508;-55
2023/05/07 06:08:06;;;;;;;6.43;3.80;;;;;;;;;;5044449;28;20444;-55
2023/05/07 06:10:33;;;;;;;5.03;4.13;;;;;;;;;;5044530;28;20558;-50
2023/05/07 06:13:01;;;;;;;5.57;4.60;;;;;;;;;;5044951;28;20453;-53
2023/05/07 06:15:28;;;;;;;7.23;4.73;;;;;;;;;;5044156;28;20527;-54
2023/05/07 06:17:57;;;;;;;4.90;3.67;;;;;;;;;;5044061;28;20444;-55
2023/05/07 06:20:24;;;;;;;7.10;4.73;;;;;;;;;;5043567;28;20445;-58
2023/05/07 06:22:51;;;;;;;12.63;6.17;;;;;;;;;;5043624;28;20472;-52
2023/05/07 06:25:18;;;;;;;6.17;3.80;;;;;;;;;;5043514;28;20542;-54
2023/05/07 06:27:46;;;;;;;9.10;6.20;;;;;;;;;;5043830;28;20444;-52
2023/05/07 06:30:14;;;;;;;7.10;4.83;;;;;;;;;;5043503;28;20514;-53
2023/05/07 06:32:42;;;;;;;6.73;5.23;;;;;;;;;;5044756;28;20574;-53
2023/05/07 06:35:09;;;;;;;9.07;4.67;;;11.80;99.90;;;;;;5044366;28;20507;-57
2023/05/07 06:37:38;;;;;;;7.73;5.60;;;;;;;;;;5043953;28;20445;-49
2023/05/07 06:40:05;;;;;;;6.40;4.80;;;;;;;;;;5043265;28;20459;-49
2023/05/07 06:42:33;;;;;;;7.37;4.90;;;;;;;;;;5043111;28;20510;-52
2023/05/07 06:45:00;;;;;;;5.47;4.33;;;;;;;;;;5042769;28;20444;-50
2023/05/07 06:47:28;;;;;;;6.87;5.03;;;11.90;99.90;;;;;;5043138;28;20508;-53
2023/05/07 06:49:55;;;;;;;8.57;5.37;;;;;;;;;;5043399;28;20523;-52
2023/05/07 06:52:22;;;;;;;5.73;4.80;;;;;;;;;;5042880;28;20528;-53
2023/05/07 06:54:50;;;;;;;7.63;4.63;;;;;;;;;;5042961;28;20495;-55
2023/05/07 06:57:17;;;;;;;6.07;4.07;;;;;;;;;;5042489;28;20849;-55
2023/05/07 06:59:44;;;;;;;6.13;3.60;;;;;;;;;;5042638;28;20444;-54
2023/05/07 07:02:11;;;;;;;7.53;5.10;;;;;;;;;;5042906;28;20440;-54
2023/05/07 07:04:40;;;;;;;8.20;5.20;;;;;;;;;;5041728;28;20480;-52
2023/05/07 07:07:07;;;;;;;5.90;5.30;;;;;;;;;;5040799;28;20503;-54
2023/05/07 07:09:37;;;;;;;5.57;4.33;;;;;;;;;;5041961;28;20474;-51
2023/05/07 07:12:04;;;;;;;11.40;5.17;;;;;;;;;;5040872;28;20487;-54
2023/05/07 07:14:31;;;;;;;6.83;4.67;;;;;;;;;;5041802;28;20440;-55
2023/05/07 07:16:59;;;;;;;6.30;5.03;;;;;;;;;;5041221;28;20483;-55
2023/05/07 07:19:26;;;;;;;7.40;5.10;;;;;;;;;;5041282;28;20543;-53
2023/05/07 07:21:54;;;;;;;6.07;4.27;;;14.10;99.90;;;;;;5040406;28;20503;-54
2023/05/07 07:24:21;;;;;;;7.27;4.40;;;;;;;;;;5040434;28;20514;-54
2023/05/07 07:26:48;;;;;;;4.20;3.03;;;;;;;;;;5040113;28;20484;-53
2023/05/07 07:29:15;;;;;;;5.20;3.40;;;;;;;;;;5051056;28;20475;-55
2023/05/07 07:31:42;;;;;;;5.07;4.37;;;;;;;;;;5041788;28;20492;-55
2023/05/07 07:34:10;;;;;;;5.40;2.87;;;;;;;;;;5040173;28;20581;-55
2023/05/07 07:36:37;;;;;;;6.00;3.67;;;;;;;;;;5044655;28;20523;-55
2023/05/07 07:39:05;;;;;;;4.30;3.90;;;14.80;99.90;;;;;;5051896;28;20448;-52
2023/05/07 07:41:32;;;;;;;4.83;4.40;;;;;;;;;;5048737;28;20487;-52
2023/05/07 07:43:59;;;;;;;4.57;4.13;;;;;;;;;;5055012;28;20495;-55
2023/05/07 07:46:27;;;;;;;19.17;9.33;;;;;;;;;;5046901;28;20526;-56
2023/05/07 07:48:54;;;;;;;5.90;3.73;;;;;;;;;;5045141;28;20451;-54
2023/05/07 07:51:21;;;;;;;4.30;3.13;;;;;;;;;;5045494;28;20479;-52
2023/05/07 07:53:49;;;;;;;7.23;3.30;;;;;;;;;;5045538;28;20480;-52
2023/05/07 07:56:17;;;;;;;4.13;3.53;;;15.40;99.90;;;;;;5044497;28;20559;-51
2023/05/07 07:58:44;;;;;;;4.33;3.33;;;;;;;;;;5045205;28;20448;-53
2023/05/07 08:01:12;;;;;;;5.07;3.90;;;;;;;;;;5044622;28;20448;-53
2023/05/07 08:03:39;;;;;;;6.13;4.03;;;;;;;;;;5043561;28;20451;-52
2023/05/07 08:06:06;;;;;;;5.40;3.57;;;;;;;;;;5041162;28;20579;-52
2023/05/07 08:08:34;;;;;;;3.30;2.70;;;;;;;;;;5040365;28;20546;-53
2023/05/07 08:11:01;;;;;;;3.70;3.37;;;;;;;;;;5039522;28;20543;-51
2023/05/07 08:13:29;;;;;;;6.27;3.80;;;23.10;99.90;;;;;;5039083;28;20486;-54
2023/05/07 08:15:56;;;;;;;4.60;2.90;;;;;;;;;;5038518;28;20456;-54
2023/05/07 08:18:24;;;;;;;3.50;2.73;;;;;;;;;;5038049;28;20445;-56
2023/05/07 08:20:51;;;;;;;5.17;3.00;;;;;;;;;;5038020;28;20452;-54
2023/05/07 08:23:18;;;;;;;5.33;3.20;;;;;;;;;;5038225;28;20505;-55
2023/05/07 08:25:46;;;;;;;4.10;3.27;;;;;;;;;;5038250;28;20507;-56
2023/05/07 08:28:13;;;;;;;5.80;3.73;;;;;;;;;;5038743;28;20507;-56
2023/05/07 08:30:41;;;;;;;3.50;3.20;;;25.20;95.40;;;;;;5038022;28;20479;-56
2023/05/07 08:33:10;;;;;;;3.27;2.97;;;;;;;;;;5037099;28;20480;-56
2023/05/07 08:35:37;;;;;;;3.37;3.07;;;;;;;;;;5035461;28;21006;-51
2023/05/07 08:38:04;;;;;;;6.67;3.23;;;;;;;;;;5035424;28;20474;-54
2023/05/07 08:40:38;;;;;;;3.80;2.60;;;26.60;90.50;;;;;;5035822;28;20539;-52
2023/05/07 08:43:07;;;;;;;3.33;3.03;;;27.00;88.20;;;;;;5036129;28;20463;-53
2023/05/07 08:45:35;;;;;;;2.80;2.50;;;27.00;86.40;;;;;;5035386;28;20428;-58
2023/05/07 08:48:10;;;;;;;3.10;2.57;;;26.20;88.00;;;;;;5037682;28;20889;-55
2023/05/07 08:50:37;;;;;;;3.80;3.50;;;;;;;;;;5037881;28;20428;-54
2023/05/07 08:53:05;;;;;;;3.13;1.97;;;;;;;;;;5037400;28;20536;-55
2023/05/07 08:55:33;;;;;;;4.37;3.70;;;;;;;;;;5037968;28;20464;-53
2023/05/07 08:58:00;;;;;;;2.60;2.40;;;;;;;;;;5038105;28;20487;-54
2023/05/07 09:00:27;;;;;;;4.10;3.00;;;;;;;;;;5037828;28;20483;-56
2023/05/07 09:02:55;;;;;;;2.90;2.47;;;;;;;;;;5039023;28;20943;-55
2023/05/07 09:05:23;;;;;;;3.30;2.83;;;;;;;;;;5039710;28;20490;-54
2023/05/07 09:07:51;;;;;;;5.93;4.00;;;;;;;;;;5038016;28;20503;-55
2023/05/07 09:10:18;;;;;;;3.43;3.00;;;;;;;;;;5038658;28;20476;-56
2023/05/07 09:12:45;;;;;;;4.87;3.10;;;;;;;;;;5037756;28;20555;-56
2023/05/07 09:15:12;;;;;;;3.40;2.43;;;;;;;;;;5038490;28;20943;-56
2023/05/07 09:17:41;;;;;;;5.10;3.33;;;;;;;;;;5038211;28;20455;-53
2023/05/07 09:20:08;;;;;;;3.73;3.33;;;23.00;92.20;;;;;;5039415;28;20437;-57
2023/05/07 09:22:37;;;;;;;3.67;2.70;;;23.30;92.90;;;;;;5038215;28;20491;-56
2023/05/07 09:25:05;;;;;;;4.60;2.70;;;;;;;;;;5035356;28;20535;-54
2023/05/07 09:27:32;;;;;;;3.03;2.60;;;23.40;90.90;;;;;;5035500;28;20484;-56
2023/05/07 09:29:59;;;;;;;4.30;3.20;;;;;;;;;;5036029;28;20499;-56
2023/05/07 09:32:28;;;;;;;3.97;3.23;;;;;;;;;;5035617;28;20484;-56
2023/05/07 09:34:55;;;;;;;7.10;3.20;;;;;;;;;;5036055;28;20451;-56
2023/05/07 09:37:23;;;;;;;4.30;3.07;;;;;;;;;;5039427;28;20439;-53
2023/05/07 09:39:51;;;;;;;3.87;3.00;;;21.90;92.00;;;;;;5041539;28;20448;-56
2023/05/07 09:42:24;;;;;;;3.63;3.03;;;21.70;92.70;;;;;;5042298;28;20495;-55
2023/05/07 09:44:53;;;;;;;2.83;2.40;;;21.40;92.80;;;;;;5046244;28;20444;-51
2023/05/07 09:47:24;;;;;;;3.23;2.93;;;21.10;93.00;;;;;;5042051;28;21035;-56
2023/05/07 09:49:51;;;;;;;3.00;2.43;;;;;;;;;;5042565;28;20428;-55
2023/05/07 09:52:19;;;;;;;2.97;2.70;;;;;;;;;;5042215;28;20516;-55
2023/05/07 09:54:48;;;;;;;3.87;3.13;;;19.70;97.40;;;;;;5042078;28;20424;-54
2023/05/07 09:57:17;;;;;;;3.60;2.63;;;19.30;87.60;;;;;;5042663;28;20444;-53
2023/05/07 09:59:45;;;;;;;3.30;2.30;;;;;;;;;;5042419;28;20538;-52
2023/05/07 10:02:14;;;;;;;2.80;2.60;;;19.60;99.40;;;;;;5041894;28;20949;-55
2023/05/07 10:04:41;;;;;;;3.70;1.97;;;;;;;;;;5041946;28;20468;-55
2023/05/07 10:07:08;;;;;;;2.90;2.43;;;;;;;;;;5041266;28;20518;-56
2023/05/07 10:09:38;;;;;;;4.47;3.00;;;21.30;77.20;;;;;;5041425;28;20506;-57
2023/05/07 10:12:06;;;;;;;2.57;2.07;;;21.40;99.90;;;;;;5041405;28;20502;-55
2023/05/07 10:14:35;;;;;;;2.47;2.27;;;21.40;95.50;;;;;;5041309;28;20471;-55
2023/05/07 10:17:03;;;;;;;2.57;2.10;;;;;;;;;;5044090;28;20451;-55
2023/05/07 10:19:32;;;;;;;2.40;2.20;;;21.20;99.90;;;;;;5042182;28;20491;-56
2023/05/07 10:22:05;;;;;;;1.90;1.80;;;22.00;99.50;;;;;;5041305;28;20606;-55
2023/05/07 10:24:34;;;;;;;2.50;2.20;;;21.40;77.90;;;;;;5040799;28;20852;-53
2023/05/07 10:27:05;;;;;;;3.37;2.47;;;21.00;93.90;;;;;;5039466;28;20987;-56
2023/05/07 10:29:46;;;;;;;2.53;2.20;;;20.40;99.90;;;;;;5042749;28;20409;-56
2023/05/07 10:32:29;;;;;;;1.83;1.63;;;20.50;99.90;;;;;;5044391;28;20429;-55
2023/05/07 10:35:00;;;;;;;3.30;2.10;;;20.70;93.60;;;;;;5047477;28;20448;-54
2023/05/07 10:37:27;;;;;;;3.83;2.00;;;;;;;;;;5049028;28;20421;-55
2023/05/07 10:39:54;;;;;;;1.80;1.70;;;20.20;95.30;;;;;;5040538;28;20563;-54
2023/05/07 10:42:21;;;;;;;2.97;1.97;;;19.80;99.90;;;;;;5040841;28;20475;-56
2023/05/07 10:44:49;;;;;;;3.87;1.97;;;20.00;99.90;;;;;;5054846;28;20474;-51
2023/05/07 10:47:18;;;;;;;5.57;2.07;;;19.80;90.90;;;;;;5048853;28;20468;-53
2023/05/07 10:50:22;;;;;;;2.80;1.87;;;19.50;91.60;;;;;;5053401;28;20522;-54
2023/05/07 10:53:24;;;;;;;3.20;2.67;;;19.30;79.90;;;;;;5028506;28;20459;-53
2023/05/07 10:55:52;;;;;;;2.40;1.83;;;19.10;81.80;;;;;;5040765;28;20431;-47
2023/05/07 10:58:26;;;;;;;7.13;3.27;;;19.20;99.90;;;;;;5041274;28;20460;-55
2023/05/07 11:00:58;;;;;;;2.30;1.90;;;19.10;99.90;;;;;;5043643;28;20442;-54
2023/05/07 11:03:25;;;;;;;4.00;2.40;;;18.60;99.90;;;;;;5042733;28;20507;-54
2023/05/07 11:06:10;;;;;;;2.13;1.93;;;18.90;84.50;;;;;;5043531;28;20455;-56
2023/05/07 11:08:56;;;;;;;2.40;2.20;;;19.40;82.70;;;;;;5038159;28;20555;-56
2023/05/07 11:11:47;;;;;;;4.17;2.80;;;19.60;97.10;;;;;;5038265;28;21018;-55
2023/05/07 11:14:15;;;;;;;2.90;2.50;;;;;;;;;;5039602;28;20436;-53
2023/05/07 11:16:45;;;;;;;5.07;2.50;;;19.70;82.80;;;;;;5045780;28;20474;-54
2023/05/07 11:19:11;;;;;;;2.37;2.10;;;19.40;99.90;;;;;;5038029;28;20444;-55
2023/05/07 11:21:39;;;;;;;2.80;2.20;;;20.00;99.90;;;;;;5038286;28;20443;-52
2023/05/07 11:24:07;;;;;;;2.07;1.80;;;19.90;99.90;;;;;;5037641;28;20448;-55
2023/05/07 11:26:45;;;;;;;2.40;1.87;;;19.70;95.30;;;;;;5038119;28;20829;-57
2023/05/07 11:29:13;;;;;;;3.07;1.93;;;19.70;95.80;;;;;;5037903;28;20480;-54
2023/05/07 11:31:41;;;;;;;3.27;2.07;;;;;;;;;;5038067;28;20452;-54
2023/05/07 11:34:09;;;;;;;2.30;2.10;;;19.90;94.70;;;;;;5037611;28;20452;-57
2023/05/07 11:36:38;;;;;;;2.43;1.60;;;;;;;;;;5038731;28;20761;-55
2023/05/07 11:39:07;;;;;;;2.20;1.87;;;;;;;;;;5038166;28;20452;-56
2023/05/07 11:41:37;;;;;;;3.13;2.23;;;;;;;;;;5037533;28;20955;-50
2023/05/07 11:44:04;;;;;;;4.20;2.80;;;;;;;;;;5037329;28;20452;-55
2023/05/07 11:46:32;;;;;;;2.97;2.53;;;;;;;;;;5037328;28;20944;-55
2023/05/07 11:48:59;;;;;;;4.80;3.00;;;;;;;;;;5037248;28;20575;-57
2023/05/07 11:51:27;;;;;;;7.00;2.20;;;19.00;99.90;;;;;;5037654;28;20480;-56
2023/05/07 11:53:54;;;;;;;4.30;2.77;;;;;;;;;;5039005;28;20500;-56
2023/05/07 11:56:22;;;;;;;5.47;2.70;;;;;;;;;;5045925;28;20472;-56
2023/05/07 11:58:51;;;;;;;3.83;1.67;;;18.60;97.40;;;;;;5039213;28;20471;-56
2023/05/07 12:01:18;;;;;;;4.43;2.57;;;;;;;;;;5040090;28;20475;-57
2023/05/07 12:03:46;;;;;;;5.63;2.50;;;;;;;;;;5039902;28;20444;-55
2023/05/07 12:06:14;;;;;;;2.20;2.00;;;;;;;;;;5039222;28;20486;-55
2023/05/07 12:08:43;;;;;;;2.87;1.90;;;;;;;;;;5050510;28;20515;-50
2023/05/07 12:11:11;;;;;;;4.47;2.20;;;19.00;96.40;;;;;;5048545;28;20468;-52
2023/05/07 12:13:39;;;;;;;2.03;1.80;;;;;;;;;;5046268;28;20452;-53
2023/05/07 12:16:07;;;;;;;2.37;2.10;;;19.20;97.60;;;;;;5040043;28;20931;-54
2023/05/07 12:18:36;;;;;;;2.77;2.13;;;19.20;96.50;;;;;;5039717;28;20464;-51
2023/05/07 12:21:04;;;;;;;2.60;2.10;;;;;;;;;;5036891;28;20444;-54
2023/05/07 12:23:31;;;;;;;2.10;1.80;;;;;;;;;;5035386;28;20539;-50
2023/05/07 12:26:00;;;;;;;6.57;2.20;;;19.10;97.80;;;;;;5041579;28;20444;-51
2023/05/07 12:28:27;;;;;;;4.70;1.77;;;;;;;;;;5052297;28;20507;-54
2023/05/07 12:30:55;;;;;;;1.73;1.63;;;;;;;;;;5043570;28;20480;-51
2023/05/07 12:33:25;;;;;;;2.20;1.93;;;;;;;;;;5049499;28;20766;-57
2023/05/07 12:35:55;;;;;;;2.80;1.80;;;19.20;95.60;;;;;;5044267;28;20444;-53
2023/05/07 12:38:22;;;;;;;2.70;1.97;;;;;;;;;;5039936;28;20881;-50
2023/05/07 12:40:51;;;;;;;2.97;2.43;;;19.00;96.60;;;;;;5049406;28;20567;-56
2023/05/07 12:43:21;;;;;;;7.27;1.73;;;19.20;94.50;;;;;;5043793;28;20539;-57
2023/05/07 12:45:50;;;;;;;3.27;2.47;;;19.10;96.80;;;;;;5038496;28;20460;-56
2023/05/07 12:48:17;;;;;;;3.30;2.17;;;;;;;;;;5045886;28;20464;-54
2023/05/07 12:50:44;;;;;;;2.63;2.43;;;;;;;;;;5049277;28;20475;-58
2023/05/07 12:53:13;;;;;;;2.00;1.80;;;19.50;97.60;;;;;;5044345;28;20456;-58
2023/05/07 12:55:44;;;;;;;5.63;1.70;;;19.40;94.00;;;;;;5046396;28;20483;-55
2023/05/07 12:58:16;;;;;;;2.33;1.80;;;;;;;;;;5055431;28;20420;-50
2023/05/07 13:00:45;;;;;;;3.13;2.00;;;19.50;94.50;;;;;;5049099;28;20468;-54
2023/05/07 13:03:12;;;;;;;2.70;2.10;;;;;;;;;;5040235;28;20505;-52
2023/05/07 13:05:39;;;;;;;2.90;1.93;;;;;;;;;;5038883;28;20499;-56
2023/05/07 13:08:09;;;;;;;4.80;2.60;;;;;;;;;;5039161;28;20499;-56
2023/05/07 13:10:36;;;;;;;3.33;2.40;;;;;;;;;;5041032;28;20459;-55
2023/05/07 13:13:04;;;;;;;2.33;1.83;;;19.60;93.70;;;;;;5042670;28;20505;-57
2023/05/07 13:15:31;;;;;;;2.70;2.20;;;;;;;;;;5042836;28;20509;-55
2023/05/07 13:18:00;;;;;;;4.20;2.20;;;;;;;;;;5042663;28;20506;-53
2023/05/07 13:20:27;;;;;;;2.33;2.13;;;;;;;;;;5042994;28;20483;-55
2023/05/07 13:22:54;;;;;;;1.70;1.60;;;;;;;;;;5043193;28;20462;-55
2023/05/07 13:25:21;;;;;;;2.80;2.30;;;;;;;;;;5042719;28;20440;-57
2023/05/07 13:27:48;;;;;;;2.30;1.77;;;;;;;;;;5042566;28;20984;-55
2023/05/07 13:30:15;;;;;;;1.97;1.70;;;;;;;;;;5042759;28;20486;-56
2023/05/07 13:32:43;;;;;;;3.57;2.03;;;;;;;;;;5042364;28;20436;-57
2023/05/07 13:35:11;;;;;;;2.80;2.13;;;18.70;96.00;;;;;;5042349;28;20490;-54
2023/05/07 13:37:39;;;;;;;2.60;1.80;;;;;;;;;;5042510;28;20476;-50
2023/05/07 13:40:09;;;;;;;2.80;2.17;;;18.40;95.50;;;;;;5042294;28;20555;-57
2023/05/07 13:42:36;;;;;;;2.33;2.07;;;;;;;;;;5042300;28;20462;-56
2023/05/07 13:45:04;;;;;;;2.70;2.47;;;;;;;;;;5042388;28;20476;-55
2023/05/07 13:47:32;;;;;;;3.60;2.60;;;;;;;;;;5042976;28;20447;-56
2023/05/07 13:49:59;;;;;;;2.30;1.97;;;;;;;;;;5042709;28;20549;-55
2023/05/07 13:52:27;;;;;;;3.30;1.90;;;18.40;95.00;;;;;;5042974;28;20549;-54
2023/05/07 13:54:54;;;;;;;2.40;1.37;;;;;;;;;;5042929;28;20509;-55
2023/05/07 13:57:22;;;;;;;4.30;2.67;;;;;;;;;;5042245;28;20487;-54
2023/05/07 13:59:49;;;;;;;3.20;2.10;;;;;;;;;;5046309;28;20491;-55
2023/05/07 14:02:16;;;;;;;2.33;2.13;;;;;;;;;;5052174;28;20522;-55
2023/05/07 14:04:44;;;;;;;2.03;1.70;;;;;;;;;;5042783;28;20818;-56
2023/05/07 14:07:11;;;;;;;1.73;1.63;;;;;;;;;;5042685;28;20451;-55
2023/05/07 14:09:39;;;;;;;2.90;1.70;;;18.80;94.50;;;;;;5042978;28;20523;-56
2023/05/07 14:12:07;;;;;;;1.97;1.40;;;;;;;;;;5042454;28;20452;-56
2023/05/07 14:14:34;;;;;;;2.93;2.17;;;;;;;;;;5042205;28;20476;-56
2023/05/07 14:17:01;;;;;;;3.33;2.20;;;;;;;;;;5042071;28;20471;-55